Time;durP1;ratioP1;P1;durP2;ratioP2;P2;SDS_P1;SDS_P2;PMS_P1;PMS_P2;Temp;Humidity;BMP_temperature;BMP_pressure;BME280_temperature;BME280_humidity;BME280_pressure;Samples;Min_cycle;Max_cycle;Signal;HPM_P1;HPM_P2
2021/12/28 00:01:26;;;;;;;123.22;52.15;;;2.50;99.90;;;;;;4971798;28;20366;-74
2021/12/28 00:03:53;;;;;;;150.20;58.45;;;2.50;99.90;;;;;;4972205;28;20030;-74
2021/12/28 00:06:19;;;;;;;168.52;65.78;;;2.40;99.90;;;;;;4970859;28;20038;-74
2021/12/28 00:08:46;;;;;;;155.00;59.40;;;2.40;99.90;;;;;;4970479;28;20037;-73
2021/12/28 00:11:13;;;;;;;118.20;51.13;;;2.40;99.90;;;;;;4970258;28;20153;-73
2021/12/28 00:13:40;;;;;;;104.18;44.53;;;2.40;99.90;;;;;;4970423;28;20046;-74
2021/12/28 00:18:34;;;;;;;129.60;54.00;;;2.40;99.90;;;;;;4970435;28;20027;-73
2021/12/28 00:21:03;;;;;;;154.70;65.43;;;2.50;99.90;;;;;;4970611;28;20026;-73
2021/12/28 00:23:36;;;;;;;114.28;51.05;;;2.50;99.90;;;;;;4970365;28;20030;-73
2021/12/28 00:26:05;;;;;;;134.48;56.38;;;2.50;99.90;;;;;;4970522;28;20109;-74
2021/12/28 00:28:30;;;;;;;164.43;65.93;;;2.50;99.90;;;;;;4970387;28;20019;-73
2021/12/28 00:30:57;;;;;;;150.82;63.70;;;2.50;99.90;;;;;;4970285;28;20037;-73
2021/12/28 00:33:24;;;;;;;146.93;68.35;;;2.50;99.90;;;;;;4970259;28;20098;-73
2021/12/28 00:35:52;;;;;;;116.75;53.20;;;2.50;99.90;;;;;;4970094;28;20027;-73
2021/12/28 00:38:23;;;;;;;119.18;53.40;;;2.50;99.90;;;;;;4973373;28;20069;-74
2021/12/28 00:40:53;;;;;;;118.05;53.83;;;2.50;99.90;;;;;;4971501;28;20080;-73
2021/12/28 00:43:19;;;;;;;99.82;45.92;;;2.50;99.90;;;;;;4973681;28;20026;-73
2021/12/28 00:45:46;;;;;;;116.50;50.75;;;2.40;99.90;;;;;;4971333;28;20054;-73
2021/12/28 00:48:12;;;;;;;132.57;55.75;;;2.40;99.90;;;;;;4973673;28;20026;-73
2021/12/28 00:50:38;;;;;;;104.55;47.20;;;2.40;99.90;;;;;;4973577;28;20035;-73
2021/12/28 00:53:05;;;;;;;113.18;51.15;;;2.40;99.90;;;;;;4973618;28;20027;-73
2021/12/28 00:55:31;;;;;;;114.47;50.63;;;2.40;99.90;;;;;;4973596;28;20057;-73
2021/12/28 00:57:57;;;;;;;100.43;44.65;;;2.40;99.90;;;;;;4973195;28;20038;-74
2021/12/28 01:00:28;;;;;;;101.00;44.58;;;2.40;99.90;;;;;;4973061;28;20031;-73
2021/12/28 01:02:55;;;;;;;;;;;2.30;99.90;;;;;;4974006;28;20031;-73
2021/12/28 01:05:21;;;;;;;104.38;45.92;;;2.30;99.90;;;;;;4973497;28;19906;-74
2021/12/28 01:07:48;;;;;;;113.65;47.10;;;2.30;99.90;;;;;;4972981;28;20114;-74
2021/12/28 01:10:18;;;;;;;147.85;57.75;;;2.30;99.90;;;;;;4973475;28;20461;-73
2021/12/28 01:12:44;;;;;;;143.05;61.60;;;2.20;99.90;;;;;;4973233;28;20023;-73
2021/12/28 01:15:12;;;;;;;105.07;44.85;;;2.20;99.90;;;;;;4972796;28;20497;-74
2021/12/28 01:17:38;;;;;;;112.85;48.72;;;2.30;99.90;;;;;;4971851;28;20371;-73
2021/12/28 01:20:08;;;;;;;89.47;41.25;;;2.20;99.90;;;;;;4972957;28;20066;-73
2021/12/28 01:22:34;;;;;;;116.40;48.95;;;2.30;99.90;;;;;;4972908;28;20081;-73
2021/12/28 01:25:00;;;;;;;131.20;58.83;;;2.30;99.90;;;;;;4972757;28;20058;-73
2021/12/28 01:27:26;;;;;;;117.70;51.95;;;2.40;99.90;;;;;;4973214;28;20450;-73
2021/12/28 01:29:52;;;;;;;128.30;58.22;;;2.40;99.90;;;;;;4972886;28;20382;-73
2021/12/28 01:32:17;;;;;;;128.90;62.28;;;2.40;99.90;;;;;;4972711;28;20059;-73
2021/12/28 01:34:44;;;;;;;122.60;53.13;;;2.40;99.90;;;;;;4973040;28;20030;-73
2021/12/28 01:37:10;;;;;;;113.97;49.72;;;2.40;99.90;;;;;;4972813;28;20462;-73
2021/12/28 01:39:36;;;;;;;101.20;43.08;;;2.50;99.90;;;;;;4972892;28;20031;-74
2021/12/28 01:42:05;;;;;;;100.95;41.78;;;2.40;99.90;;;;;;4973181;28;20038;-73
2021/12/28 01:44:33;;;;;;;107.55;44.40;;;2.40;99.90;;;;;;4973007;28;20064;-74
2021/12/28 01:46:58;;;;;;;101.28;44.47;;;2.40;99.90;;;;;;4973135;28;20037;-73
2021/12/28 01:49:24;;;;;;;105.38;45.83;;;2.40;99.90;;;;;;4971845;28;20031;-73
2021/12/28 01:51:51;;;;;;;121.88;52.97;;;2.40;99.90;;;;;;4972882;28;20034;-74
2021/12/28 01:54:17;;;;;;;135.60;59.83;;;2.30;99.90;;;;;;4972382;28;20051;-74
2021/12/28 01:56:44;;;;;;;149.20;60.60;;;2.40;99.90;;;;;;4972323;28;20042;-73
2021/12/28 01:59:13;;;;;;;118.78;51.42;;;2.40;99.90;;;;;;4972677;28;20465;-74
2021/12/28 02:01:39;;;;;;;112.45;48.90;;;2.40;99.90;;;;;;4972798;28;20031;-74
2021/12/28 02:04:19;;;;;;;123.38;50.03;;;2.40;99.90;;;;;;4972594;28;20034;-73
2021/12/28 02:06:46;;;;;;;110.63;46.30;;;2.40;99.90;;;;;;4970785;28;20022;-73
2021/12/28 02:09:12;;;;;;;124.32;49.42;;;2.40;99.90;;;;;;4974139;28;20031;-73
2021/12/28 02:11:39;;;;;;;122.72;51.53;;;2.50;99.90;;;;;;4973483;28;20073;-73
2021/12/28 02:14:07;;;;;;;135.27;55.30;;;2.50;99.90;;;;;;4973542;28;20053;-73
2021/12/28 02:16:35;;;;;;;115.30;48.15;;;2.50;99.90;;;;;;4972621;28;20031;-73
2021/12/28 02:19:02;;;;;;;129.25;53.00;;;2.50;99.90;;;;;;4973256;28;20096;-73
2021/12/28 02:21:31;;;;;;;119.38;48.33;;;2.50;99.90;;;;;;4973604;28;20029;-73
2021/12/28 02:24:01;;;;;;;118.13;45.10;;;2.50;99.90;;;;;;4973731;28;20073;-73
2021/12/28 02:26:27;;;;;;;130.60;51.70;;;2.60;99.90;;;;;;4973630;28;20522;-73
2021/12/28 02:28:53;;;;;;;125.80;51.50;;;2.50;99.90;;;;;;4973715;28;20031;-74
2021/12/28 02:31:20;;;;;;;134.05;50.28;;;2.50;99.90;;;;;;4973436;28;20118;-74
2021/12/28 02:33:48;;;;;;;133.98;53.67;;;2.50;99.90;;;;;;4973850;28;20533;-73
2021/12/28 02:36:15;;;;;;;126.53;47.80;;;2.50;99.90;;;;;;4973396;28;20033;-73
2021/12/28 02:38:41;;;;;;;121.85;48.85;;;2.60;99.90;;;;;;4973210;28;20140;-74
2021/12/28 02:41:09;;;;;;;112.15;46.75;;;2.60;99.90;;;;;;4973441;28;20031;-73
2021/12/28 02:43:35;;;;;;;133.25;50.13;;;2.50;99.90;;;;;;4973357;28;20030;-73
2021/12/28 02:46:05;;;;;;;135.27;50.85;;;2.50;99.90;;;;;;4973254;28;20465;-73
2021/12/28 02:48:32;;;;;;;125.15;53.28;;;2.50;99.90;;;;;;4973309;28;20035;-73
2021/12/28 02:51:11;;;;;;;124.85;49.03;;;2.50;99.90;;;;;;4973149;28;20031;-73
2021/12/28 02:53:37;;;;;;;123.22;49.70;;;2.50;99.90;;;;;;4972922;28;20026;-73
2021/12/28 02:56:04;;;;;;;134.27;53.83;;;2.50;99.90;;;;;;4973283;28;20026;-73
2021/12/28 02:58:37;;;;;;;145.82;55.97;;;2.50;99.90;;;;;;4973204;28;20101;-73
2021/12/28 03:01:09;;;;;;;135.52;53.53;;;2.50;99.90;;;;;;4973076;28;20027;-73
2021/12/28 03:03:38;;;;;;;138.15;56.45;;;2.40;99.90;;;;;;4973093;28;20389;-74
2021/12/28 03:06:07;;;;;;;144.50;57.03;;;2.40;99.90;;;;;;4973004;28;20042;-74
2021/12/28 03:08:36;;;;;;;137.50;55.53;;;2.40;99.90;;;;;;4973191;28;20034;-74
2021/12/28 03:11:05;;;;;;;145.02;56.35;;;2.50;99.90;;;;;;4972785;28;20027;-73
2021/12/28 03:13:43;;;;;;;151.80;55.25;;;2.50;99.90;;;;;;4972559;28;20026;-73
2021/12/28 03:16:10;;;;;;;109.43;42.58;;;2.50;99.90;;;;;;4973393;28;20034;-74
2021/12/28 03:18:36;;;;;;;131.55;48.90;;;2.50;99.90;;;;;;4972413;28;20031;-73
2021/12/28 03:21:05;;;;;;;98.45;38.10;;;2.50;99.90;;;;;;4972721;28;20042;-73
2021/12/28 03:23:31;;;;;;;98.90;41.55;;;2.40;99.90;;;;;;4972608;28;20029;-74
2021/12/28 03:25:57;;;;;;;120.95;48.05;;;2.50;99.90;;;;;;4972591;28;20023;-73
2021/12/28 03:28:30;;;;;;;116.95;42.58;;;2.50;99.90;;;;;;4972378;28;20564;-73
2021/12/28 03:31:00;;;;;;;126.00;46.97;;;2.40;99.90;;;;;;4972784;28;20027;-74
2021/12/28 03:33:28;;;;;;;157.65;56.15;;;2.40;99.90;;;;;;4972698;28;20056;-74
2021/12/28 03:35:54;;;;;;;122.40;47.10;;;2.50;99.90;;;;;;4972167;28;20027;-73
2021/12/28 03:38:20;;;;;;;99.80;39.00;;;2.50;99.90;;;;;;4972567;28;20426;-74
2021/12/28 03:40:46;;;;;;;184.35;61.97;;;2.40;99.90;;;;;;4972297;28;20052;-73
2021/12/28 03:43:13;;;;;;;140.90;48.80;;;2.40;99.90;;;;;;4972138;28;20465;-74
2021/12/28 03:45:38;;;;;;;111.70;42.72;;;2.40;99.90;;;;;;4972290;28;20458;-73
2021/12/28 03:48:04;;;;;;;118.20;44.28;;;2.40;99.90;;;;;;4972096;28;20045;-73
2021/12/28 03:50:32;;;;;;;130.40;48.13;;;2.50;99.90;;;;;;4972392;28;20054;-74
2021/12/28 03:52:58;;;;;;;148.30;51.05;;;2.50;99.90;;;;;;4972151;28;20080;-73
2021/12/28 03:55:25;;;;;;;137.38;48.47;;;2.40;99.90;;;;;;4972082;28;20054;-73
2021/12/28 03:57:52;;;;;;;217.45;86.78;;;2.40;99.90;;;;;;4971829;28;20027;-73
2021/12/28 04:00:20;;;;;;;139.07;52.13;;;2.50;99.90;;;;;;4971915;28;20031;-73
2021/12/28 04:02:47;;;;;;;152.20;49.30;;;2.50;99.90;;;;;;4971734;28;20019;-71
2021/12/28 04:05:14;;;;;;;157.32;45.90;;;2.40;99.90;;;;;;4972290;28;20027;-73
2021/12/28 04:07:40;;;;;;;141.30;47.08;;;2.40;99.90;;;;;;4972098;28;20535;-73
2021/12/28 04:10:09;;;;;;;157.57;49.35;;;2.40;99.90;;;;;;4972012;28;20061;-73
2021/12/28 04:12:35;;;;;;;160.82;57.45;;;2.40;99.90;;;;;;4971269;28;20095;-73
2021/12/28 04:15:01;;;;;;;204.43;80.47;;;2.40;99.90;;;;;;4971618;28;20069;-73
2021/12/28 04:17:28;;;;;;;203.60;75.95;;;2.30;99.90;;;;;;4971700;28;20031;-73
2021/12/28 04:19:55;;;;;;;174.25;59.80;;;2.40;99.90;;;;;;4971949;28;20083;-73
2021/12/28 04:22:21;;;;;;;146.63;48.40;;;2.30;99.90;;;;;;4971731;28;20427;-73
2021/12/28 04:24:47;;;;;;;143.18;43.83;;;2.30;99.90;;;;;;4971905;28;20027;-74
2021/12/28 04:27:13;;;;;;;155.20;49.40;;;2.30;99.90;;;;;;4971533;28;20027;-73
2021/12/28 04:29:39;;;;;;;142.57;49.65;;;2.30;99.90;;;;;;4971970;28;20081;-73
2021/12/28 04:32:05;;;;;;;174.40;50.60;;;2.30;99.90;;;;;;4971708;28;20169;-73
2021/12/28 04:34:31;;;;;;;153.35;50.22;;;2.30;99.90;;;;;;4971812;28;20027;-73
2021/12/28 04:36:57;;;;;;;183.77;54.42;;;2.30;99.90;;;;;;4971899;28;20073;-73
2021/12/28 04:39:23;;;;;;;181.40;55.10;;;2.40;99.90;;;;;;4971266;28;20031;-73
2021/12/28 04:41:49;;;;;;;165.63;52.67;;;2.50;99.90;;;;;;4971812;28;20027;-74
2021/12/28 04:44:22;;;;;;;159.95;47.53;;;2.40;99.90;;;;;;4971476;28;20549;-73
2021/12/28 04:46:48;;;;;;;159.35;48.17;;;2.40;99.90;;;;;;4971274;28;20027;-73
2021/12/28 04:49:16;;;;;;;161.20;48.83;;;2.30;99.90;;;;;;4971672;28;20542;-73
2021/12/28 04:51:42;;;;;;;187.82;51.17;;;2.40;99.90;;;;;;4971420;28;20023;-73
2021/12/28 04:54:11;;;;;;;176.80;52.67;;;2.30;99.90;;;;;;4971392;28;20046;-73
2021/12/28 04:56:39;;;;;;;181.13;53.72;;;2.40;99.90;;;;;;4971054;28;20049;-73
2021/12/28 04:59:04;;;;;;;179.32;51.78;;;2.40;99.90;;;;;;4971264;28;20034;-72
2021/12/28 05:01:30;;;;;;;179.75;49.45;;;2.30;99.90;;;;;;4971424;28;20038;-73
2021/12/28 05:03:56;;;;;;;219.57;62.60;;;2.30;99.90;;;;;;4971350;28;20465;-72
2021/12/28 05:06:22;;;;;;;188.68;54.60;;;2.30;99.90;;;;;;4971326;28;20031;-70
2021/12/28 05:08:48;;;;;;;189.73;54.25;;;2.20;99.90;;;;;;4971455;28;20058;-71
2021/12/28 05:11:14;;;;;;;206.98;58.42;;;2.20;99.90;;;;;;4970142;28;20069;-71
2021/12/28 05:13:41;;;;;;;224.85;66.97;;;2.20;99.90;;;;;;4971160;28;20684;-70
2021/12/28 05:16:07;;;;;;;183.75;58.60;;;2.20;99.90;;;;;;4971132;28;20023;-71
2021/12/28 05:18:33;;;;;;;192.10;57.95;;;2.20;99.90;;;;;;4971239;28;20043;-73
2021/12/28 05:20:59;;;;;;;194.85;57.58;;;2.20;99.90;;;;;;4971147;28;20455;-72
2021/12/28 05:23:24;;;;;;;189.85;58.55;;;2.20;99.90;;;;;;4971136;28;20431;-73
2021/12/28 05:25:50;;;;;;;192.13;54.45;;;2.20;99.90;;;;;;4974550;28;20051;-73
2021/12/28 05:28:16;;;;;;;195.23;57.55;;;2.20;99.90;;;;;;4974578;28;20128;-71
2021/12/28 05:30:42;;;;;;;178.30;54.72;;;2.20;99.90;;;;;;4973602;28;20039;-71
2021/12/28 05:33:08;;;;;;;202.95;57.53;;;2.20;99.90;;;;;;4972873;28;20084;-70
2021/12/28 05:35:34;;;;;;;170.43;52.65;;;2.20;99.90;;;;;;4971742;28;20359;-70
2021/12/28 05:38:00;;;;;;;180.88;53.00;;;2.10;99.90;;;;;;4972097;28;20374;-70
2021/12/28 05:40:25;;;;;;;218.95;58.83;;;2.10;99.90;;;;;;4973399;28;20034;-71
2021/12/28 05:42:51;;;;;;;208.52;60.55;;;2.10;99.90;;;;;;4973579;28;20530;-71
2021/12/28 05:45:17;;;;;;;186.38;58.22;;;2.10;99.90;;;;;;4972686;28;20478;-70
2021/12/28 05:47:43;;;;;;;193.65;50.55;;;2.10;99.90;;;;;;4972763;28;20058;-71
2021/12/28 05:50:10;;;;;;;201.95;51.08;;;2.10;99.90;;;;;;4973465;28;20034;-71
2021/12/28 05:52:36;;;;;;;177.18;51.13;;;2.10;99.90;;;;;;4973517;28;20027;-70
2021/12/28 05:55:03;;;;;;;227.05;57.15;;;2.10;99.90;;;;;;4973161;28;20054;-73
2021/12/28 05:57:30;;;;;;;240.77;64.80;;;2.10;99.90;;;;;;4973896;28;20112;-71
2021/12/28 05:59:56;;;;;;;232.70;62.20;;;2.10;99.90;;;;;;4973468;28;20023;-71
2021/12/28 06:02:22;;;;;;;221.55;59.53;;;2.10;99.90;;;;;;4973274;28;20027;-71
2021/12/28 06:04:48;;;;;;;216.75;57.45;;;2.10;99.90;;;;;;4973554;28;20023;-71
2021/12/28 06:07:14;;;;;;;198.60;56.97;;;2.20;99.90;;;;;;4973707;28;20053;-71
2021/12/28 06:09:39;;;;;;;222.82;59.97;;;2.10;99.90;;;;;;4973758;28;20480;-71
2021/12/28 06:12:06;;;;;;;241.48;74.57;;;2.10;99.90;;;;;;4973833;28;20019;-71
2021/12/28 06:14:32;;;;;;;282.67;92.15;;;2.20;99.90;;;;;;4973900;28;20065;-70
2021/12/28 06:16:58;;;;;;;296.48;102.50;;;2.20;99.90;;;;;;4973649;28;20037;-71
2021/12/28 06:19:24;;;;;;;353.80;124.32;;;2.20;99.90;;;;;;4973623;28;20385;-71
2021/12/28 06:21:50;;;;;;;336.48;123.22;;;2.20;99.90;;;;;;4973496;28;20035;-70
2021/12/28 06:24:16;;;;;;;255.27;97.30;;;2.30;99.90;;;;;;4973524;28;20077;-71
2021/12/28 06:26:42;;;;;;;219.43;71.80;;;2.20;99.90;;;;;;4973513;28;20023;-71
2021/12/28 06:29:08;;;;;;;224.73;76.30;;;2.10;99.90;;;;;;4973374;28;20034;-71
2021/12/28 06:31:35;;;;;;;251.82;92.35;;;2.10;99.90;;;;;;4973317;28;20030;-71
2021/12/28 06:34:03;;;;;;;197.85;69.88;;;2.20;99.90;;;;;;4973130;28;20031;-71
2021/12/28 06:36:29;;;;;;;194.70;73.75;;;2.20;99.90;;;;;;4973204;28;20061;-71
2021/12/28 06:38:55;;;;;;;185.35;65.13;;;2.20;99.90;;;;;;4973447;28;20070;-71
2021/12/28 06:41:22;;;;;;;215.48;81.93;;;2.20;99.90;;;;;;4973359;28;20027;-71
2021/12/28 06:43:48;;;;;;;168.25;52.00;;;2.20;99.90;;;;;;4972885;28;20030;-71
2021/12/28 06:46:14;;;;;;;200.93;69.40;;;2.20;99.90;;;;;;4973479;28;20027;-71
2021/12/28 06:48:40;;;;;;;197.43;67.85;;;2.20;99.90;;;;;;4972997;28;20102;-71
2021/12/28 06:51:07;;;;;;;179.02;55.58;;;2.20;99.90;;;;;;4973139;28;20066;-71
2021/12/28 06:53:33;;;;;;;196.88;61.53;;;2.20;99.90;;;;;;4972965;28;20026;-70
2021/12/28 06:55:59;;;;;;;180.75;61.17;;;2.20;99.90;;;;;;4973235;28;20477;-71
2021/12/28 06:58:25;;;;;;;198.55;67.03;;;2.20;99.90;;;;;;4972652;28;20064;-71
2021/12/28 07:00:51;;;;;;;215.98;69.38;;;2.20;99.90;;;;;;4973065;28;20031;-71
2021/12/28 07:03:17;;;;;;;215.05;66.20;;;2.20;99.90;;;;;;4973133;28;20101;-71
2021/12/28 07:05:43;;;;;;;167.30;61.08;;;2.20;99.90;;;;;;4972621;28;20549;-71
2021/12/28 07:08:08;;;;;;;177.65;64.25;;;2.10;99.90;;;;;;4973217;28;20110;-71
2021/12/28 07:10:34;;;;;;;195.20;72.13;;;2.10;99.90;;;;;;4973048;28;20033;-71
2021/12/28 07:13:00;;;;;;;174.45;66.55;;;2.10;99.90;;;;;;4972848;28;20027;-71
2021/12/28 07:15:26;;;;;;;218.20;79.85;;;2.20;99.90;;;;;;4972811;28;20065;-70
2021/12/28 07:17:52;;;;;;;197.95;74.97;;;2.20;99.90;;;;;;4972657;28;20073;-71
2021/12/28 07:20:18;;;;;;;192.32;67.00;;;2.30;99.90;;;;;;4972687;28;20057;-72
2021/12/28 07:22:44;;;;;;;187.93;62.70;;;2.30;99.90;;;;;;4972813;28;20080;-73
2021/12/28 07:25:11;;;;;;;246.13;88.15;;;2.30;99.90;;;;;;4972609;28;20031;-71
2021/12/28 07:27:38;;;;;;;228.45;84.53;;;2.30;99.90;;;;;;4972956;28;20034;-71
2021/12/28 07:30:08;;;;;;;174.35;59.05;;;2.30;99.90;;;;;;4972499;28;20023;-71
2021/12/28 07:32:34;;;;;;;239.90;95.72;;;2.30;99.90;;;;;;4971268;28;20031;-70
2021/12/28 07:34:59;;;;;;;223.43;78.68;;;2.40;99.90;;;;;;4972599;28;20027;-71
2021/12/28 07:37:25;;;;;;;237.70;84.30;;;2.40;99.90;;;;;;4972843;28;20034;-71
2021/12/28 07:39:53;;;;;;;279.55;98.68;;;2.40;99.90;;;;;;4972309;28;20035;-71
2021/12/28 07:42:19;;;;;;;342.20;135.77;;;2.40;99.90;;;;;;4972287;28;20035;-71
2021/12/28 07:44:45;;;;;;;333.73;140.27;;;2.40;99.90;;;;;;4972471;28;20068;-71
2021/12/28 07:47:11;;;;;;;236.60;90.72;;;2.40;99.90;;;;;;4971521;28;20500;-71
2021/12/28 07:49:36;;;;;;;243.20;89.57;;;2.40;99.90;;;;;;4972409;28;20030;-70
2021/12/28 07:52:03;;;;;;;228.30;80.20;;;2.50;99.90;;;;;;4972436;28;20038;-70
2021/12/28 07:54:29;;;;;;;202.95;77.15;;;2.40;99.90;;;;;;4972128;28;20486;-71
2021/12/28 07:56:55;;;;;;;220.68;77.45;;;2.50;99.90;;;;;;4972002;28;20030;-71
2021/12/28 07:59:20;;;;;;;199.52;75.90;;;2.40;99.90;;;;;;4971967;28;20038;-70
2021/12/28 08:01:46;;;;;;;159.65;57.75;;;2.50;99.90;;;;;;4972178;28;20031;-73
2021/12/28 08:04:12;;;;;;;151.93;59.30;;;2.40;99.90;;;;;;4972182;28;20462;-70
2021/12/28 08:06:38;;;;;;;188.05;75.65;;;2.50;99.90;;;;;;4972257;28;20454;-72
2021/12/28 08:09:03;;;;;;;149.43;52.70;;;2.40;99.90;;;;;;4971854;28;20052;-73
2021/12/28 08:11:29;;;;;;;181.30;69.40;;;2.40;99.90;;;;;;4972081;28;20374;-73
2021/12/28 08:13:55;;;;;;;171.13;64.40;;;2.40;99.90;;;;;;4972158;28;20027;-71
2021/12/28 08:16:21;;;;;;;163.00;63.97;;;2.40;99.90;;;;;;4971908;28;20462;-71
2021/12/28 08:18:48;;;;;;;150.40;60.72;;;2.40;99.90;;;;;;4972179;28;20065;-70
2021/12/28 08:21:14;;;;;;;158.80;62.30;;;2.40;99.90;;;;;;4971560;28;20035;-70
2021/12/28 08:23:40;;;;;;;298.45;128.98;;;2.50;99.90;;;;;;4972089;28;20056;-71
2021/12/28 08:26:06;;;;;;;196.50;81.05;;;2.50;99.90;;;;;;4971916;28;20019;-71
2021/12/28 08:28:32;;;;;;;222.00;102.60;;;2.50;99.90;;;;;;4971774;28;20058;-71
2021/12/28 08:30:58;;;;;;;180.93;66.25;;;2.50;99.90;;;;;;4972161;28;20031;-70
2021/12/28 08:33:24;;;;;;;174.68;68.43;;;2.40;99.90;;;;;;4971511;28;20019;-70
2021/12/28 08:35:50;;;;;;;189.35;71.80;;;2.40;99.90;;;;;;4971732;28;20019;-71
2021/12/28 08:38:16;;;;;;;184.50;79.10;;;2.50;99.90;;;;;;4971511;28;20416;-70
2021/12/28 08:40:44;;;;;;;168.32;69.82;;;2.50;99.90;;;;;;4971721;28;20038;-71
2021/12/28 08:43:11;;;;;;;140.10;52.92;;;2.60;99.90;;;;;;4971508;28;20051;-71
2021/12/28 08:45:38;;;;;;;682.65;390.60;;;2.60;99.90;;;;;;4971352;28;20478;-71
2021/12/28 08:48:05;;;;;;;483.73;248.65;;;2.60;99.90;;;;;;4971582;28;20084;-71
2021/12/28 08:50:32;;;;;;;721.30;403.75;;;2.60;99.90;;;;;;4971517;28;20027;-71
2021/12/28 08:52:58;;;;;;;800.90;425.60;;;2.60;99.90;;;;;;4971617;28;20042;-71
2021/12/28 08:55:25;;;;;;;577.95;294.08;;;2.60;99.90;;;;;;4971830;28;20046;-71
2021/12/28 08:57:52;;;;;;;519.97;265.50;;;2.70;99.90;;;;;;4971900;28;20355;-70
2021/12/28 09:00:24;;;;;;;462.95;226.70;;;2.80;99.90;;;;;;4974889;28;20485;-71
2021/12/28 09:02:51;;;;;;;229.98;99.07;;;2.80;99.90;;;;;;4975227;28;20057;-71
2021/12/28 09:05:17;;;;;;;185.25;78.03;;;2.80;99.90;;;;;;4974764;28;20076;-72
2021/12/28 09:07:43;;;;;;;226.18;112.05;;;2.70;99.90;;;;;;4974834;28;20034;-73
2021/12/28 09:10:09;;;;;;;159.35;58.72;;;2.80;99.90;;;;;;4974676;28;20037;-73
2021/12/28 09:12:35;;;;;;;149.25;60.75;;;2.70;99.90;;;;;;4974562;28;20065;-73
2021/12/28 09:15:01;;;;;;;145.85;58.05;;;2.70;99.90;;;;;;4974460;28;20031;-73
2021/12/28 09:17:26;;;;;;;156.68;61.45;;;2.70;99.90;;;;;;4974553;28;20037;-72
2021/12/28 09:19:52;;;;;;;138.18;58.08;;;2.80;99.90;;;;;;4974665;28;20042;-73
2021/12/28 09:22:18;;;;;;;138.05;58.65;;;2.70;99.90;;;;;;4974284;28;20492;-71
2021/12/28 09:24:44;;;;;;;168.82;75.90;;;2.80;99.90;;;;;;4974477;28;20084;-73
2021/12/28 09:27:10;;;;;;;155.75;58.97;;;2.80;99.90;;;;;;4974739;28;20385;-71
2021/12/28 09:29:37;;;;;;;152.48;59.92;;;2.70;99.90;;;;;;4974461;28;20035;-71
2021/12/28 09:32:03;;;;;;;181.23;63.95;;;2.70;99.90;;;;;;4974008;28;20023;-71
2021/12/28 09:34:29;;;;;;;293.55;131.18;;;2.70;99.90;;;;;;4974113;28;20026;-71
2021/12/28 09:36:56;;;;;;;161.48;70.63;;;2.70;99.90;;;;;;4974647;28;20042;-71
2021/12/28 09:39:26;;;;;;;191.55;82.93;;;2.80;99.90;;;;;;4973841;28;20062;-71
2021/12/28 09:41:54;;;;;;;213.85;92.22;;;2.90;99.90;;;;;;4974276;28;20027;-71
2021/12/28 09:44:21;;;;;;;190.52;80.32;;;3.00;99.90;;;;;;4974609;28;20035;-71
2021/12/28 09:46:46;;;;;;;195.57;76.03;;;3.00;99.90;;;;;;4974117;28;20031;-70
2021/12/28 09:49:12;;;;;;;212.50;89.85;;;3.00;99.90;;;;;;4974267;28;20106;-70
2021/12/28 09:51:38;;;;;;;149.55;56.80;;;3.00;99.90;;;;;;4974203;28;20031;-74
2021/12/28 09:54:04;;;;;;;147.32;57.30;;;3.10;99.90;;;;;;4973959;28;20051;-70
2021/12/28 09:56:31;;;;;;;163.45;67.82;;;3.10;99.90;;;;;;4974050;28;20022;-71
2021/12/28 09:58:57;;;;;;;198.73;71.35;;;3.20;99.90;;;;;;4973938;28;20073;-71
2021/12/28 10:01:24;;;;;;;232.10;84.72;;;3.20;99.90;;;;;;4973611;28;20035;-70
2021/12/28 10:03:49;;;;;;;159.05;55.67;;;3.20;99.90;;;;;;4974057;28;20023;-71
2021/12/28 10:06:21;;;;;;;155.32;58.55;;;3.20;99.90;;;;;;4973844;28;20385;-71
2021/12/28 10:09:02;;;;;;;147.95;56.25;;;3.10;99.90;;;;;;4973926;28;20026;-71
2021/12/28 10:11:32;;;;;;;164.27;61.67;;;3.10;99.90;;;;;;4972476;28;20039;-71
2021/12/28 10:14:30;;;;;;;198.00;76.35;;;3.10;99.90;;;;;;4973702;28;20103;-71
2021/12/28 10:17:03;;;;;;;166.18;57.58;;;3.10;99.90;;;;;;5013545;28;20073;-70
2021/12/28 10:19:40;;;;;;;188.73;62.05;;;3.20;99.90;;;;;;5013609;28;20038;-71
2021/12/28 10:22:27;;;;;;;205.02;74.53;;;3.20;99.90;;;;;;5013248;28;20030;-71
2021/12/28 10:25:03;;;;;;;173.30;64.00;;;3.20;99.90;;;;;;5013354;28;20109;-71
2021/12/28 10:27:31;;;;;;;175.07;62.08;;;3.30;99.90;;;;;;5012849;28;20068;-71
2021/12/28 10:30:07;;;;;;;167.80;61.67;;;3.30;99.90;;;;;;5013434;28;20046;-71
2021/12/28 10:32:33;;;;;;;193.68;71.85;;;3.30;99.90;;;;;;5012883;28;20553;-71
2021/12/28 10:35:03;;;;;;;199.20;76.30;;;3.40;99.90;;;;;;5012776;28;20026;-71
2021/12/28 10:37:32;;;;;;;216.88;93.10;;;3.40;99.90;;;;;;5012889;28;20054;-71
2021/12/28 10:40:00;;;;;;;207.40;81.07;;;3.50;99.90;;;;;;5012918;28;20038;-71
2021/12/28 10:42:48;;;;;;;216.15;82.82;;;3.50;99.90;;;;;;5012600;28;20040;-71
2021/12/28 10:45:20;;;;;;;222.88;90.85;;;3.70;99.90;;;;;;5012865;28;20038;-71
2021/12/28 10:47:46;;;;;;;;;;;3.80;99.90;;;;;;5013469;28;20121;-71
2021/12/28 10:50:35;;;;;;;170.95;72.40;;;3.90;99.90;;;;;;5012590;28;20375;-70
2021/12/28 10:53:08;;;;;;;349.95;167.10;;;4.00;99.90;;;;;;4984257;28;20045;-71
2021/12/28 10:55:35;;;;;;;373.23;207.50;;;4.00;99.90;;;;;;4973270;28;20046;-71
2021/12/28 10:58:02;;;;;;;194.05;88.32;;;3.90;99.90;;;;;;4973199;28;20031;-71
2021/12/28 11:00:38;;;;;;;222.98;95.20;;;3.90;99.90;;;;;;4973187;28;20030;-71
2021/12/28 11:03:16;;;;;;;158.57;66.85;;;4.00;99.90;;;;;;4972750;28;20023;-71
2021/12/28 11:05:45;;;;;;;143.65;54.72;;;3.90;99.90;;;;;;4972660;28;20026;-71
2021/12/28 11:08:12;;;;;;;130.27;54.00;;;3.90;99.90;;;;;;4973194;28;20050;-71
2021/12/28 11:10:54;;;;;;;156.90;65.25;;;3.90;99.90;;;;;;4972633;28;20070;-71
2021/12/28 11:13:23;;;;;;;164.68;62.05;;;3.90;99.90;;;;;;4972452;28;20031;-71
2021/12/28 11:15:49;;;;;;;138.45;57.63;;;3.90;99.90;;;;;;4972786;28;20027;-71
2021/12/28 11:18:38;;;;;;;157.65;63.13;;;4.00;99.90;;;;;;4972646;28;20042;-71
2021/12/28 11:21:15;;;;;;;185.13;69.05;;;4.00;99.90;;;;;;4971456;28;20035;-71
2021/12/28 11:23:42;;;;;;;169.85;64.15;;;4.00;99.90;;;;;;4972422;28;20488;-71
2021/12/28 11:26:31;;;;;;;124.47;51.67;;;4.20;99.90;;;;;;4972619;28;20064;-71
2021/12/28 11:29:06;;;;;;;143.88;59.45;;;4.20;99.90;;;;;;4972570;28;20034;-71
2021/12/28 11:31:40;;;;;;;224.88;86.53;;;4.30;99.90;;;;;;4972427;28;20023;-70
2021/12/28 11:34:11;;;;;;;710.20;307.23;;;4.20;99.90;;;;;;4972352;28;20031;-71
2021/12/28 11:36:47;;;;;;;544.10;214.10;;;4.20;99.90;;;;;;4972484;28;20027;-70
2021/12/28 11:39:17;;;;;;;523.17;215.32;;;4.30;99.90;;;;;;4971941;28;20026;-71
2021/12/28 11:41:44;;;;;;;146.00;61.65;;;4.40;99.90;;;;;;4972349;28;20101;-71
2021/12/28 11:44:11;;;;;;;151.18;70.00;;;4.30;99.90;;;;;;4971719;28;20058;-71
2021/12/28 11:46:37;;;;;;;231.40;103.65;;;4.40;99.90;;;;;;4972072;28;20031;-71
2021/12/28 11:49:06;;;;;;;168.15;76.45;;;4.40;99.90;;;;;;4972269;28;20035;-71
2021/12/28 11:51:33;;;;;;;189.70;82.90;;;4.30;99.90;;;;;;4971993;28;20027;-70
2021/12/28 11:54:03;;;;;;;150.38;68.15;;;4.20;99.90;;;;;;4971875;28;20404;-71
2021/12/28 11:56:38;;;;;;;154.75;66.03;;;4.30;99.90;;;;;;4971694;28;20031;-71
2021/12/28 11:59:26;;;;;;;170.50;70.40;;;4.30;99.90;;;;;;4971925;28;20066;-71
2021/12/28 12:01:52;;;;;;;160.13;66.43;;;4.30;99.90;;;;;;4972160;28;20031;-71
2021/12/28 12:04:29;;;;;;;150.00;61.45;;;4.40;99.90;;;;;;4972197;28;20035;-71
2021/12/28 12:07:12;;;;;;;165.40;68.80;;;4.20;99.90;;;;;;4971515;28;20076;-71
2021/12/28 12:09:50;;;;;;;155.38;61.10;;;4.20;99.90;;;;;;4972282;28;20065;-70
2021/12/28 12:12:22;;;;;;;190.80;75.82;;;4.20;99.90;;;;;;4971830;28;20123;-71
2021/12/28 12:14:51;;;;;;;178.70;72.65;;;4.20;99.90;;;;;;4971551;28;20027;-71
2021/12/28 12:20:01;;;;;;;219.68;93.53;;;4.10;99.90;;;;;;4971572;28;20042;-71
2021/12/28 12:22:34;;;;;;;239.05;98.00;;;4.20;99.90;;;;;;4971484;28;20382;-71
2021/12/28 12:25:06;;;;;;;209.73;84.30;;;4.20;99.90;;;;;;4971816;28;20027;-71
2021/12/28 12:27:54;;;;;;;260.10;113.90;;;4.30;99.90;;;;;;4971181;28;20114;-71
2021/12/28 12:30:27;;;;;;;232.35;98.28;;;4.20;99.90;;;;;;4971733;28;20027;-71
2021/12/28 12:33:00;;;;;;;191.43;74.90;;;4.20;99.90;;;;;;4972859;28;20061;-71
2021/12/28 12:35:34;;;;;;;172.82;75.30;;;4.20;99.90;;;;;;4975169;28;20034;-71
2021/12/28 12:38:02;;;;;;;226.90;97.60;;;4.20;99.90;;;;;;4974688;28;20027;-71